Sunderland, Maryland
Current Conditions -  °F | °C
As of 11:58 PM on Thursday 30 Oct 2014 (Local Time) from KADW Reporting Station
Clear Clear  
Wind Chill: 39°   Ceiling: Unl
Heat Index: 42°   Visibility: 10mi
Dew Point: 35°   Wind: 5mph
Humidity: 78%   Direction: 350°N
Pressure: 30.03"   Gusts: NA
Location:  38.67°N, 76.6°W
Report Text: KADW 310358Z AUTO 35004KT 10SM CLR 05/02 A3003 RMK AO2 SLP177 T00530017 $
Loading
Personal Weather Stations






























Interactive Weather Map
Tropical Storm Tracking
New forecast layout! Learn more

10-Day Weather Forecast

Advertisements
Track Severe Weather on mobile